sensor_id;sensor_type;location;lat;lon;timestamp;temperature;humidity
43991;DHT22;29654;50.784;20.604;2023-04-25T00:01:37;18.10;44.20
43991;DHT22;29654;50.784;20.604;2023-04-25T00:06:40;18.20;44.40
43991;DHT22;29654;50.784;20.604;2023-04-25T00:11:43;18.10;44.60
43991;DHT22;29654;50.784;20.604;2023-04-25T00:16:47;18.10;44.40
43991;DHT22;29654;50.784;20.604;2023-04-25T00:21:49;18.20;44.80
43991;DHT22;29654;50.784;20.604;2023-04-25T00:26:52;18.20;44.80
43991;DHT22;29654;50.784;20.604;2023-04-25T00:31:56;18.20;44.80
43991;DHT22;29654;50.784;20.604;2023-04-25T00:36:59;18.20;45.00
43991;DHT22;29654;50.784;20.604;2023-04-25T00:42:03;18.30;45.10
43991;DHT22;29654;50.784;20.604;2023-04-25T00:47:08;18.30;45.10
43991;DHT22;29654;50.784;20.604;2023-04-25T00:52:13;18.40;45.30
43991;DHT22;29654;50.784;20.604;2023-04-25T00:57:16;18.40;45.20
43991;DHT22;29654;50.784;20.604;2023-04-25T01:02:20;18.40;45.20
43991;DHT22;29654;50.784;20.604;2023-04-25T01:07:23;18.50;45.40
43991;DHT22;29654;50.784;20.604;2023-04-25T01:12:26;18.50;45.00
43991;DHT22;29654;50.784;20.604;2023-04-25T01:17:31;18.60;44.90
43991;DHT22;29654;50.784;20.604;2023-04-25T01:22:35;18.60;45.10
43991;DHT22;29654;50.784;20.604;2023-04-25T01:27:39;18.50;45.30
43991;DHT22;29654;50.784;20.604;2023-04-25T01:32:42;18.50;45.30
43991;DHT22;29654;50.784;20.604;2023-04-25T01:37:46;18.50;45.30
43991;DHT22;29654;50.784;20.604;2023-04-25T01:42:50;18.50;45.60
43991;DHT22;29654;50.784;20.604;2023-04-25T01:47:54;18.50;45.60
43991;DHT22;29654;50.784;20.604;2023-04-25T01:53:01;18.50;45.70
43991;DHT22;29654;50.784;20.604;2023-04-25T01:58:05;18.50;46.00
43991;DHT22;29654;50.784;20.604;2023-04-25T02:03:31;18.50;46.00
43991;DHT22;29654;50.784;20.604;2023-04-25T02:08:37;18.50;46.20
43991;DHT22;29654;50.784;20.604;2023-04-25T02:13:40;18.50;46.40
43991;DHT22;29654;50.784;20.604;2023-04-25T02:19:00;18.50;46.40
43991;DHT22;29654;50.784;20.604;2023-04-25T02:24:07;18.40;46.80
43991;DHT22;29654;50.784;20.604;2023-04-25T02:29:10;18.40;47.20
43991;DHT22;29654;50.784;20.604;2023-04-25T02:34:13;18.30;47.10
43991;DHT22;29654;50.784;20.604;2023-04-25T02:39:16;18.30;47.10
43991;DHT22;29654;50.784;20.604;2023-04-25T02:44:19;18.30;47.50
43991;DHT22;29654;50.784;20.604;2023-04-25T02:49:22;18.30;47.40
43991;DHT22;29654;50.784;20.604;2023-04-25T02:54:26;18.20;47.50
43991;DHT22;29654;50.784;20.604;2023-04-25T02:59:30;18.10;47.80
43991;DHT22;29654;50.784;20.604;2023-04-25T03:04:33;18.00;47.80
43991;DHT22;29654;50.784;20.604;2023-04-25T03:09:37;17.80;47.90
43991;DHT22;29654;50.784;20.604;2023-04-25T03:14:40;17.70;48.40
43991;DHT22;29654;50.784;20.604;2023-04-25T03:19:43;17.50;48.10
43991;DHT22;29654;50.784;20.604;2023-04-25T03:24:47;17.30;48.30
43991;DHT22;29654;50.784;20.604;2023-04-25T03:29:49;17.20;48.70
43991;DHT22;29654;50.784;20.604;2023-04-25T03:34:53;16.90;48.70
43991;DHT22;29654;50.784;20.604;2023-04-25T03:39:59;16.80;49.00
43991;DHT22;29654;50.784;20.604;2023-04-25T03:45:20;16.70;49.30
43991;DHT22;29654;50.784;20.604;2023-04-25T03:50:23;16.70;49.20
43991;DHT22;29654;50.784;20.604;2023-04-25T03:55:27;16.70;49.30
43991;DHT22;29654;50.784;20.604;2023-04-25T04:00:30;16.70;49.70
43991;DHT22;29654;50.784;20.604;2023-04-25T04:05:34;16.70;49.50
43991;DHT22;29654;50.784;20.604;2023-04-25T04:10:39;16.70;49.60
43991;DHT22;29654;50.784;20.604;2023-04-25T04:15:42;16.70;49.70
43991;DHT22;29654;50.784;20.604;2023-04-25T04:20:45;16.70;49.80
43991;DHT22;29654;50.784;20.604;2023-04-25T04:25:49;16.70;49.80
43991;DHT22;29654;50.784;20.604;2023-04-25T04:31:01;16.80;49.90
43991;DHT22;29654;50.784;20.604;2023-04-25T04:36:05;16.70;49.90
43991;DHT22;29654;50.784;20.604;2023-04-25T04:41:10;16.70;49.90
43991;DHT22;29654;50.784;20.604;2023-04-25T04:46:39;16.60;50.10
43991;DHT22;29654;50.784;20.604;2023-04-25T04:51:50;16.50;50.10
43991;DHT22;29654;50.784;20.604;2023-04-25T04:57:13;16.40;50.30
43991;DHT22;29654;50.784;20.604;2023-04-25T05:02:52;16.40;50.90
43991;DHT22;29654;50.784;20.604;2023-04-25T05:08:04;16.30;50.60
43991;DHT22;29654;50.784;20.604;2023-04-25T05:13:28;16.20;51.00
43991;DHT22;29654;50.784;20.604;2023-04-25T05:18:54;16.10;51.20
43991;DHT22;29654;50.784;20.604;2023-04-25T05:24:16;16.10;51.20
43991;DHT22;29654;50.784;20.604;2023-04-25T05:29:39;16.10;51.30
43991;DHT22;29654;50.784;20.604;2023-04-25T05:35:00;16.00;51.60
43991;DHT22;29654;50.784;20.604;2023-04-25T05:40:10;16.00;51.50
43991;DHT22;29654;50.784;20.604;2023-04-25T05:45:20;15.90;51.70
43991;DHT22;29654;50.784;20.604;2023-04-25T05:50:43;15.80;52.10
43991;DHT22;29654;50.784;20.604;2023-04-25T05:56:04;15.70;51.90
43991;DHT22;29654;50.784;20.604;2023-04-25T06:01:09;15.70;51.90
43991;DHT22;29654;50.784;20.604;2023-04-25T06:06:11;15.60;52.20
43991;DHT22;29654;50.784;20.604;2023-04-25T06:11:15;15.60;52.10
43991;DHT22;29654;50.784;20.604;2023-04-25T06:16:19;15.60;52.30
43991;DHT22;29654;50.784;20.604;2023-04-25T06:21:21;15.60;52.50
43991;DHT22;29654;50.784;20.604;2023-04-25T06:26:26;15.60;52.70
43991;DHT22;29654;50.784;20.604;2023-04-25T06:31:30;15.60;52.70
43991;DHT22;29654;50.784;20.604;2023-04-25T06:36:34;15.60;52.80
43991;DHT22;29654;50.784;20.604;2023-04-25T06:41:42;15.50;53.30
43991;DHT22;29654;50.784;20.604;2023-04-25T06:47:05;15.40;52.50
43991;DHT22;29654;50.784;20.604;2023-04-25T06:52:08;15.40;52.70
43991;DHT22;29654;50.784;20.604;2023-04-25T06:57:13;15.30;52.60
43991;DHT22;29654;50.784;20.604;2023-04-25T07:02:17;15.30;53.40
43991;DHT22;29654;50.784;20.604;2023-04-25T07:07:20;15.20;52.70
43991;DHT22;29654;50.784;20.604;2023-04-25T07:12:29;15.20;52.80
43991;DHT22;29654;50.784;20.604;2023-04-25T07:17:33;15.10;53.00
43991;DHT22;29654;50.784;20.604;2023-04-25T07:22:36;15.20;53.40
43991;DHT22;29654;50.784;20.604;2023-04-25T07:27:40;15.10;53.30
43991;DHT22;29654;50.784;20.604;2023-04-25T07:32:50;15.10;53.50
43991;DHT22;29654;50.784;20.604;2023-04-25T07:37:53;15.20;53.60
43991;DHT22;29654;50.784;20.604;2023-04-25T07:42:56;15.20;53.30
43991;DHT22;29654;50.784;20.604;2023-04-25T07:48:16;15.20;53.30
43991;DHT22;29654;50.784;20.604;2023-04-25T07:53:21;15.30;53.70
43991;DHT22;29654;50.784;20.604;2023-04-25T07:58:30;15.30;53.10
43991;DHT22;29654;50.784;20.604;2023-04-25T08:03:38;15.30;53.10
43991;DHT22;29654;50.784;20.604;2023-04-25T08:08:46;15.40;53.30
43991;DHT22;29654;50.784;20.604;2023-04-25T08:13:52;15.40;53.30
43991;DHT22;29654;50.784;20.604;2023-04-25T08:18:58;15.50;53.20
43991;DHT22;29654;50.784;20.604;2023-04-25T08:24:01;15.60;53.30
43991;DHT22;29654;50.784;20.604;2023-04-25T08:29:08;15.60;53.10
43991;DHT22;29654;50.784;20.604;2023-04-25T08:34:15;15.60;53.10
43991;DHT22;29654;50.784;20.604;2023-04-25T08:39:25;15.60;53.10
43991;DHT22;29654;50.784;20.604;2023-04-25T08:44:48;15.60;53.30
43991;DHT22;29654;50.784;20.604;2023-04-25T08:49:53;15.70;53.60
43991;DHT22;29654;50.784;20.604;2023-04-25T08:54:57;15.80;53.20
43991;DHT22;29654;50.784;20.604;2023-04-25T09:00:04;15.80;52.90
43991;DHT22;29654;50.784;20.604;2023-04-25T09:05:14;15.80;52.80
43991;DHT22;29654;50.784;20.604;2023-04-25T09:10:18;15.80;52.70
43991;DHT22;29654;50.784;20.604;2023-04-25T09:15:22;15.90;52.70
43991;DHT22;29654;50.784;20.604;2023-04-25T09:20:47;15.90;52.60
43991;DHT22;29654;50.784;20.604;2023-04-25T09:25:50;15.90;52.60
43991;DHT22;29654;50.784;20.604;2023-04-25T09:30:56;16.00;52.50
43991;DHT22;29654;50.784;20.604;2023-04-25T09:36:07;16.10;52.20
43991;DHT22;29654;50.784;20.604;2023-04-25T09:41:30;16.10;52.20
43991;DHT22;29654;50.784;20.604;2023-04-25T09:46:36;16.00;52.00
43991;DHT22;29654;50.784;20.604;2023-04-25T09:51:59;16.00;52.10
43991;DHT22;29654;50.784;20.604;2023-04-25T09:57:11;16.20;52.30
43991;DHT22;29654;50.784;20.604;2023-04-25T10:02:16;16.20;52.10
43991;DHT22;29654;50.784;20.604;2023-04-25T10:07:25;16.20;52.10
43991;DHT22;29654;50.784;20.604;2023-04-25T10:12:29;16.30;51.80
43991;DHT22;29654;50.784;20.604;2023-04-25T10:17:33;16.40;51.40
43991;DHT22;29654;50.784;20.604;2023-04-25T10:22:39;16.40;51.00
43991;DHT22;29654;50.784;20.604;2023-04-25T10:27:43;16.40;51.10
43991;DHT22;29654;50.784;20.604;2023-04-25T10:32:47;16.30;51.10
43991;DHT22;29654;50.784;20.604;2023-04-25T10:37:59;16.30;51.00
43991;DHT22;29654;50.784;20.604;2023-04-25T10:43:34;16.30;51.10
43991;DHT22;29654;50.784;20.604;2023-04-25T10:48:45;16.30;50.60
43991;DHT22;29654;50.784;20.604;2023-04-25T10:54:00;16.30;50.40
43991;DHT22;29654;50.784;20.604;2023-04-25T10:59:08;16.30;50.30
43991;DHT22;29654;50.784;20.604;2023-04-25T11:04:22;16.30;50.50
43991;DHT22;29654;50.784;20.604;2023-04-25T11:09:26;16.40;50.30
43991;DHT22;29654;50.784;20.604;2023-04-25T11:14:29;16.40;50.20
43991;DHT22;29654;50.784;20.604;2023-04-25T11:19:32;16.40;50.00
43991;DHT22;29654;50.784;20.604;2023-04-25T11:24:36;16.40;50.20
43991;DHT22;29654;50.784;20.604;2023-04-25T11:29:38;16.40;50.20
43991;DHT22;29654;50.784;20.604;2023-04-25T11:34:43;16.40;50.00
43991;DHT22;29654;50.784;20.604;2023-04-25T11:39:48;16.40;49.90
43991;DHT22;29654;50.784;20.604;2023-04-25T11:44:51;16.40;49.90
43991;DHT22;29654;50.784;20.604;2023-04-25T11:49:54;16.30;49.90
43991;DHT22;29654;50.784;20.604;2023-04-25T11:54:58;16.30;50.00
43991;DHT22;29654;50.784;20.604;2023-04-25T12:00:11;16.30;49.90
43991;DHT22;29654;50.784;20.604;2023-04-25T12:05:16;16.30;49.90
43991;DHT22;29654;50.784;20.604;2023-04-25T12:10:20;16.30;49.90
43991;DHT22;29654;50.784;20.604;2023-04-25T12:15:24;16.40;49.90
43991;DHT22;29654;50.784;20.604;2023-04-25T12:20:27;16.40;49.80
43991;DHT22;29654;50.784;20.604;2023-04-25T12:25:38;16.40;49.60
43991;DHT22;29654;50.784;20.604;2023-04-25T12:30:58;16.40;50.00
43991;DHT22;29654;50.784;20.604;2023-04-25T12:36:02;16.50;49.90
43991;DHT22;29654;50.784;20.604;2023-04-25T12:41:10;16.60;49.80
43991;DHT22;29654;50.784;20.604;2023-04-25T12:46:13;16.60;49.70
43991;DHT22;29654;50.784;20.604;2023-04-25T12:51:15;16.60;49.60
43991;DHT22;29654;50.784;20.604;2023-04-25T12:56:20;16.60;49.70
43991;DHT22;29654;50.784;20.604;2023-04-25T13:01:24;16.60;49.80
43991;DHT22;29654;50.784;20.604;2023-04-25T13:06:27;16.60;49.80
43991;DHT22;29654;50.784;20.604;2023-04-25T13:11:32;16.60;49.80
43991;DHT22;29654;50.784;20.604;2023-04-25T13:16:34;16.60;50.00
43991;DHT22;29654;50.784;20.604;2023-04-25T13:21:37;16.60;49.90
43991;DHT22;29654;50.784;20.604;2023-04-25T13:26:42;16.60;50.00
43991;DHT22;29654;50.784;20.604;2023-04-25T13:31:44;16.60;50.20
43991;DHT22;29654;50.784;20.604;2023-04-25T13:36:47;16.50;50.50
43991;DHT22;29654;50.784;20.604;2023-04-25T13:41:50;16.40;49.90
43991;DHT22;29654;50.784;20.604;2023-04-25T13:46:53;16.40;50.00
43991;DHT22;29654;50.784;20.604;2023-04-25T13:51:55;16.20;50.10
43991;DHT22;29654;50.784;20.604;2023-04-25T13:56:59;16.20;50.40
43991;DHT22;29654;50.784;20.604;2023-04-25T14:02:03;16.10;50.60
43991;DHT22;29654;50.784;20.604;2023-04-25T14:07:06;16.10;50.70
43991;DHT22;29654;50.784;20.604;2023-04-25T14:12:10;16.00;50.90
43991;DHT22;29654;50.784;20.604;2023-04-25T14:17:13;16.00;50.90
43991;DHT22;29654;50.784;20.604;2023-04-25T14:22:15;15.90;50.80
43991;DHT22;29654;50.784;20.604;2023-04-25T14:27:20;15.90;50.90
43991;DHT22;29654;50.784;20.604;2023-04-25T14:32:22;15.80;51.20
43991;DHT22;29654;50.784;20.604;2023-04-25T14:37:25;15.80;51.20
43991;DHT22;29654;50.784;20.604;2023-04-25T14:42:29;15.70;51.20
43991;DHT22;29654;50.784;20.604;2023-04-25T14:47:32;15.70;51.40
43991;DHT22;29654;50.784;20.604;2023-04-25T14:52:35;15.70;51.20
43991;DHT22;29654;50.784;20.604;2023-04-25T14:57:39;15.60;51.00
43991;DHT22;29654;50.784;20.604;2023-04-25T15:02:42;15.60;51.20
43991;DHT22;29654;50.784;20.604;2023-04-25T15:07:45;15.50;51.10
43991;DHT22;29654;50.784;20.604;2023-04-25T15:12:50;15.50;51.30
43991;DHT22;29654;50.784;20.604;2023-04-25T15:17:54;15.40;51.50
43991;DHT22;29654;50.784;20.604;2023-04-25T15:22:57;15.40;51.50
43991;DHT22;29654;50.784;20.604;2023-04-25T15:28:01;15.40;52.10
43991;DHT22;29654;50.784;20.604;2023-04-25T15:33:05;15.30;52.30
43991;DHT22;29654;50.784;20.604;2023-04-25T15:38:08;15.10;53.00
43991;DHT22;29654;50.784;20.604;2023-04-25T15:43:13;15.00;53.40
43991;DHT22;29654;50.784;20.604;2023-04-25T15:48:17;14.90;53.20
43991;DHT22;29654;50.784;20.604;2023-04-25T15:53:19;14.80;53.40
43991;DHT22;29654;50.784;20.604;2023-04-25T15:58:23;14.80;53.50
43991;DHT22;29654;50.784;20.604;2023-04-25T16:03:27;14.80;54.10
43991;DHT22;29654;50.784;20.604;2023-04-25T16:08:29;14.70;53.70
43991;DHT22;29654;50.784;20.604;2023-04-25T16:13:35;14.80;54.30
43991;DHT22;29654;50.784;20.604;2023-04-25T16:18:38;14.80;53.20
43991;DHT22;29654;50.784;20.604;2023-04-25T16:23:40;14.80;53.00
43991;DHT22;29654;50.784;20.604;2023-04-25T16:28:45;14.90;52.70
43991;DHT22;29654;50.784;20.604;2023-04-25T16:33:47;14.90;52.60
43991;DHT22;29654;50.784;20.604;2023-04-25T16:38:50;14.90;52.50
43991;DHT22;29654;50.784;20.604;2023-04-25T16:43:54;14.90;52.50
43991;DHT22;29654;50.784;20.604;2023-04-25T16:48:56;14.90;52.50
43991;DHT22;29654;50.784;20.604;2023-04-25T16:53:59;14.90;52.30
43991;DHT22;29654;50.784;20.604;2023-04-25T16:59:03;14.90;52.30
43991;DHT22;29654;50.784;20.604;2023-04-25T17:04:06;14.90;52.50
43991;DHT22;29654;50.784;20.604;2023-04-25T17:09:08;14.90;52.50
43991;DHT22;29654;50.784;20.604;2023-04-25T17:14:13;14.80;52.30
43991;DHT22;29654;50.784;20.604;2023-04-25T17:19:15;14.80;52.50
43991;DHT22;29654;50.784;20.604;2023-04-25T17:24:18;14.80;52.40
43991;DHT22;29654;50.784;20.604;2023-04-25T17:29:23;14.70;52.40
43991;DHT22;29654;50.784;20.604;2023-04-25T17:34:26;14.70;52.70
43991;DHT22;29654;50.784;20.604;2023-04-25T17:39:29;14.70;52.50
43991;DHT22;29654;50.784;20.604;2023-04-25T17:44:33;14.70;52.60
43991;DHT22;29654;50.784;20.604;2023-04-25T17:49:36;14.70;52.50
43991;DHT22;29654;50.784;20.604;2023-04-25T17:54:39;14.70;52.40
43991;DHT22;29654;50.784;20.604;2023-04-25T17:59:43;14.60;52.60
43991;DHT22;29654;50.784;20.604;2023-04-25T18:04:46;14.60;52.60
43991;DHT22;29654;50.784;20.604;2023-04-25T18:09:48;14.60;52.50
43991;DHT22;29654;50.784;20.604;2023-04-25T18:14:52;14.60;52.60
43991;DHT22;29654;50.784;20.604;2023-04-25T18:19:55;14.60;52.60
43991;DHT22;29654;50.784;20.604;2023-04-25T18:24:57;14.70;52.50
43991;DHT22;29654;50.784;20.604;2023-04-25T18:30:02;14.70;52.50
43991;DHT22;29654;50.784;20.604;2023-04-25T18:35:06;14.60;52.50
43991;DHT22;29654;50.784;20.604;2023-04-25T18:40:10;14.60;52.60
43991;DHT22;29654;50.784;20.604;2023-04-25T18:45:17;14.60;52.50
43991;DHT22;29654;50.784;20.604;2023-04-25T18:50:20;14.60;52.60
43991;DHT22;29654;50.784;20.604;2023-04-25T18:55:26;14.60;52.50
43991;DHT22;29654;50.784;20.604;2023-04-25T19:00:30;14.70;52.40
43991;DHT22;29654;50.784;20.604;2023-04-25T19:05:33;14.60;52.50
43991;DHT22;29654;50.784;20.604;2023-04-25T19:10:36;14.70;52.50
43991;DHT22;29654;50.784;20.604;2023-04-25T19:15:40;14.70;52.40
43991;DHT22;29654;50.784;20.604;2023-04-25T19:20:43;14.70;52.40
43991;DHT22;29654;50.784;20.604;2023-04-25T19:25:46;14.70;52.30
43991;DHT22;29654;50.784;20.604;2023-04-25T19:30:50;14.70;52.30
43991;DHT22;29654;50.784;20.604;2023-04-25T19:35:53;14.80;52.40
43991;DHT22;29654;50.784;20.604;2023-04-25T19:40:55;14.70;52.40
43991;DHT22;29654;50.784;20.604;2023-04-25T19:45:59;14.70;53.00
43991;DHT22;29654;50.784;20.604;2023-04-25T19:51:02;14.70;52.30
43991;DHT22;29654;50.784;20.604;2023-04-25T19:56:05;14.70;52.20
43991;DHT22;29654;50.784;20.604;2023-04-25T20:01:09;14.60;52.30
43991;DHT22;29654;50.784;20.604;2023-04-25T20:06:12;14.60;52.30
43991;DHT22;29654;50.784;20.604;2023-04-25T20:11:15;14.50;52.10
43991;DHT22;29654;50.784;20.604;2023-04-25T20:16:19;14.40;52.10
43991;DHT22;29654;50.784;20.604;2023-04-25T20:21:21;14.30;52.20
43991;DHT22;29654;50.784;20.604;2023-04-25T20:26:24;14.20;52.30
43991;DHT22;29654;50.784;20.604;2023-04-25T20:31:28;14.20;52.40
43991;DHT22;29654;50.784;20.604;2023-04-25T20:36:31;14.10;52.60
43991;DHT22;29654;50.784;20.604;2023-04-25T20:41:35;14.10;52.70
43991;DHT22;29654;50.784;20.604;2023-04-25T20:46:41;14.00;52.80
43991;DHT22;29654;50.784;20.604;2023-04-25T20:51:44;14.10;53.10
43991;DHT22;29654;50.784;20.604;2023-04-25T20:56:47;14.00;52.90
43991;DHT22;29654;50.784;20.604;2023-04-25T21:01:52;14.10;53.10
43991;DHT22;29654;50.784;20.604;2023-04-25T21:06:55;14.10;53.30
43991;DHT22;29654;50.784;20.604;2023-04-25T21:11:59;14.10;53.20
43991;DHT22;29654;50.784;20.604;2023-04-25T21:17:04;14.10;53.30
43991;DHT22;29654;50.784;20.604;2023-04-25T21:22:07;14.10;53.40
43991;DHT22;29654;50.784;20.604;2023-04-25T21:27:09;14.20;53.20
43991;DHT22;29654;50.784;20.604;2023-04-25T21:32:13;14.20;53.10
43991;DHT22;29654;50.784;20.604;2023-04-25T21:37:20;14.10;52.70
43991;DHT22;29654;50.784;20.604;2023-04-25T21:42:23;14.10;52.50
43991;DHT22;29654;50.784;20.604;2023-04-25T21:47:27;14.00;52.50
43991;DHT22;29654;50.784;20.604;2023-04-25T21:52:29;13.90;52.70
43991;DHT22;29654;50.784;20.604;2023-04-25T21:57:32;13.80;52.60
43991;DHT22;29654;50.784;20.604;2023-04-25T22:02:37;13.70;52.70
43991;DHT22;29654;50.784;20.604;2023-04-25T22:07:39;13.60;52.90
43991;DHT22;29654;50.784;20.604;2023-04-25T22:12:42;13.50;53.00
43991;DHT22;29654;50.784;20.604;2023-04-25T22:17:48;13.40;53.20
43991;DHT22;29654;50.784;20.604;2023-04-25T22:22:52;13.40;53.40
43991;DHT22;29654;50.784;20.604;2023-04-25T22:27:55;13.30;53.30
43991;DHT22;29654;50.784;20.604;2023-04-25T22:32:59;13.30;53.40
43991;DHT22;29654;50.784;20.604;2023-04-25T22:38:02;13.30;53.60
43991;DHT22;29654;50.784;20.604;2023-04-25T22:43:04;13.30;53.60
43991;DHT22;29654;50.784;20.604;2023-04-25T22:48:08;13.30;53.70
43991;DHT22;29654;50.784;20.604;2023-04-25T22:53:11;13.30;53.90
43991;DHT22;29654;50.784;20.604;2023-04-25T22:58:14;13.30;53.90
43991;DHT22;29654;50.784;20.604;2023-04-25T23:03:18;13.30;53.90
43991;DHT22;29654;50.784;20.604;2023-04-25T23:08:21;13.30;54.00
43991;DHT22;29654;50.784;20.604;2023-04-25T23:13:23;13.30;54.00
43991;DHT22;29654;50.784;20.604;2023-04-25T23:18:27;13.30;54.00
43991;DHT22;29654;50.784;20.604;2023-04-25T23:23:30;13.30;54.10
43991;DHT22;29654;50.784;20.604;2023-04-25T23:28:32;13.30;54.00
43991;DHT22;29654;50.784;20.604;2023-04-25T23:33:37;13.30;54.00
43991;DHT22;29654;50.784;20.604;2023-04-25T23:38:39;13.30;54.00
43991;DHT22;29654;50.784;20.604;2023-04-25T23:43:42;13.30;53.90
43991;DHT22;29654;50.784;20.604;2023-04-25T23:48:46;13.20;53.90
43991;DHT22;29654;50.784;20.604;2023-04-25T23:53:48;13.30;54.00
43991;DHT22;29654;50.784;20.604;2023-04-25T23:58:51;13.20;53.90
